createdAt,value
2022-11-28T00:00:27.866Z,62.04
2022-11-28T00:05:31.420Z,62.02
2022-11-28T00:10:38.652Z,62.27
2022-11-28T00:15:43.973Z,63.36
2022-11-28T00:20:47.805Z,63.36
2022-11-28T00:25:58.793Z,64.37
2022-11-28T00:31:04.307Z,64.54
2022-11-28T00:36:08.538Z,63.98
2022-11-28T00:41:14.775Z,64.69
2022-11-28T00:46:21.435Z,65.29
2022-11-28T00:51:26.516Z,65.34
2022-11-28T00:56:32.325Z,65.27
2022-11-28T01:01:39.785Z,65.83
2022-11-28T01:06:44.964Z,65.33
2022-11-28T01:11:49.415Z,65.61
2022-11-28T01:16:54.619Z,65.96
2022-11-28T01:21:58.164Z,65.96
2022-11-28T01:27:01.724Z,66.61
2022-11-28T01:32:06.994Z,66.87
2022-11-28T01:37:10.524Z,66.61
2022-11-28T01:42:18.588Z,67.24
2022-11-28T01:47:31.080Z,67.42
2022-11-28T01:52:36.926Z,67.24
2022-11-28T01:57:41.376Z,67.71
2022-11-28T02:02:49.592Z,67.93
2022-11-28T02:07:53.597Z,67.48
2022-11-28T02:13:26.299Z,68.17
2022-11-28T02:18:50.725Z,68.40
2022-11-28T02:24:18.837Z,68.77
2022-11-28T02:29:51.934Z,68.75
2022-11-28T02:35:03.675Z,68.59
2022-11-28T02:40:16.223Z,69.05
2022-11-28T02:45:30.165Z,68.62
2022-11-28T02:50:41.113Z,68.41
2022-11-28T02:55:45.598Z,68.38
2022-11-28T03:00:51.436Z,68.54
2022-11-28T03:06:03.383Z,69.02
2022-11-28T03:11:16.282Z,69.78
2022-11-28T03:16:27.942Z,69.24
2022-11-28T03:21:39.801Z,69.11
2022-11-28T03:26:53.384Z,69.59
2022-11-28T03:32:01.960Z,69.75
2022-11-28T03:37:12.170Z,69.73
2022-11-28T03:42:21.811Z,69.74
2022-11-28T03:47:27.943Z,69.74
2022-11-28T03:52:37.842Z,69.57
2022-11-28T03:57:45.946Z,69.95
2022-11-28T04:02:58.044Z,69.54
2022-11-28T04:08:11.932Z,70.12
2022-11-28T04:13:22.236Z,70.27
2022-11-28T04:18:30.472Z,70.69
2022-11-28T04:23:38.630Z,70.62
2022-11-28T04:28:43.690Z,70.46
2022-11-28T04:33:52.170Z,70.60
2022-11-28T04:38:59.991Z,70.84
2022-11-28T04:44:09.624Z,70.56
2022-11-28T04:49:13.856Z,70.56
2022-11-28T04:54:25.128Z,70.40
2022-11-28T04:59:31.731Z,70.32
2022-11-28T05:04:37.599Z,70.59
2022-11-28T05:09:42.812Z,70.83
2022-11-28T05:14:46.402Z,70.99
2022-11-28T05:19:49.951Z,70.71
2022-11-28T05:24:55.146Z,70.93
2022-11-28T05:29:58.705Z,71.03
2022-11-28T05:35:02.283Z,71.37
2022-11-28T05:40:10.599Z,71.74
2022-11-28T05:45:14.145Z,71.28
2022-11-28T05:50:17.788Z,71.32
2022-11-28T05:55:22.999Z,71.51
2022-11-28T06:00:26.736Z,71.47
2022-11-28T06:05:42.113Z,71.85
2022-11-28T06:10:57.435Z,72.64
2022-11-28T06:16:01.055Z,71.80
2022-11-28T06:21:05.589Z,72.20
2022-11-28T06:26:12.368Z,73.26
2022-11-28T06:31:17.396Z,73.30
2022-11-28T06:36:21.070Z,72.92
2022-11-28T06:41:26.245Z,73.04
2022-11-28T06:46:29.854Z,73.51
2022-11-28T06:51:34.243Z,73.26
2022-11-28T06:56:41.164Z,74.05
2022-11-28T07:01:44.765Z,73.78
2022-11-28T07:06:49.004Z,73.88
2022-11-28T07:11:54.168Z,74.01
2022-11-28T07:16:57.734Z,74.31
2022-11-28T07:22:01.415Z,73.67
2022-11-28T07:27:06.617Z,74.45
2022-11-28T07:32:10.412Z,73.66
2022-11-28T07:37:14.120Z,73.83
2022-11-28T07:42:19.295Z,74.23
2022-11-28T07:47:22.948Z,75.14
2022-11-28T07:52:26.493Z,74.57
2022-11-28T07:57:31.696Z,74.69
2022-11-28T08:02:35.280Z,75.25
2022-11-28T08:07:38.997Z,74.94
2022-11-28T08:12:45.331Z,75.86
2022-11-28T08:17:48.902Z,75.02
2022-11-28T08:22:52.477Z,75.05
2022-11-28T08:27:57.692Z,75.82
2022-11-28T08:33:01.242Z,74.54
2022-11-28T08:38:04.825Z,74.68
2022-11-28T08:43:10.033Z,75.06
2022-11-28T08:48:13.606Z,75.19
2022-11-28T08:53:18.441Z,74.89
2022-11-28T08:58:23.916Z,75.89
2022-11-28T09:03:27.599Z,75.90
2022-11-28T09:08:31.209Z,75.68
2022-11-28T09:13:36.836Z,76.41
2022-11-28T09:18:40.591Z,75.65
2022-11-28T09:23:45.607Z,76.05
2022-11-28T09:34:17.808Z,76.18
2022-11-28T09:39:21.341Z,75.66
2022-11-28T09:44:34.409Z,76.58
2022-11-28T09:49:45.091Z,77.25
2022-11-28T09:54:53.869Z,77.47
2022-11-28T09:59:59.112Z,77.33
2022-11-28T10:05:10.823Z,77.45
2022-11-28T10:10:23.846Z,77.92
2022-11-28T10:15:36.812Z,77.76
2022-11-28T10:20:44.146Z,77.09
2022-11-28T10:25:51.650Z,77.25
2022-11-28T10:31:02.410Z,77.87
2022-11-28T10:36:07.059Z,77.36
2022-11-28T10:41:18.329Z,77.92
2022-11-28T10:46:38.662Z,77.86
2022-11-28T10:51:49.469Z,77.69
2022-11-28T10:57:02.351Z,78.20
2022-11-28T11:02:22.643Z,78.46
2022-11-28T11:07:30.444Z,78.01
2022-11-28T11:12:36.050Z,78.59
2022-11-28T11:17:41.319Z,78.51
2022-11-28T11:22:55.491Z,79.86
2022-11-28T11:28:01.127Z,79.08
2022-11-28T11:33:14.549Z,79.33
2022-11-28T11:38:27.190Z,78.36
2022-11-28T11:43:32.149Z,78.35
2022-11-28T11:48:42.137Z,77.46
2022-11-28T11:53:45.937Z,77.50
2022-11-28T11:58:54.533Z,78.57
2022-11-28T12:04:13.296Z,78.42
2022-11-28T12:09:30.128Z,78.57
2022-11-28T12:14:35.149Z,77.95
2022-11-28T12:19:55.329Z,78.22
2022-11-28T12:25:11.007Z,77.76
2022-11-28T12:30:27.364Z,78.51
2022-11-28T12:35:39.543Z,77.67
2022-11-28T12:40:58.340Z,77.41
2022-11-28T12:46:12.091Z,77.08
2022-11-28T12:51:27.854Z,75.33
2022-11-28T12:56:42.166Z,74.85
2022-11-28T13:02:03.978Z,74.07
2022-11-28T13:07:23.395Z,73.23
2022-11-28T13:12:29.393Z,72.06
2022-11-28T13:17:43.501Z,72.79
2022-11-28T13:23:09.616Z,72.83
2022-11-28T13:28:21.533Z,72.84
2022-11-28T13:33:40.066Z,72.49
2022-11-28T13:39:12.460Z,72.47
2022-11-28T13:44:22.482Z,71.83
2022-11-28T13:49:27.417Z,72.54
2022-11-28T13:54:43.391Z,71.98
2022-11-28T13:59:51.784Z,71.31
2022-11-28T14:04:55.567Z,71.00
2022-11-28T14:10:33.677Z,70.92
2022-11-28T14:15:47.342Z,70.06
2022-11-28T14:20:58.044Z,70.86
2022-11-28T14:26:12.582Z,71.61
2022-11-28T14:31:26.270Z,72.04
2022-11-28T14:36:31.527Z,72.16
2022-11-28T14:42:51.915Z,72.63
2022-11-28T14:48:18.730Z,72.85
2022-11-28T14:53:54.845Z,73.19
2022-11-28T14:59:03.212Z,72.16
2022-11-28T15:04:27.926Z,72.19
2022-11-28T15:09:38.773Z,72.26
2022-11-28T15:14:47.965Z,71.94
2022-11-28T15:19:52.375Z,72.06
2022-11-28T15:25:01.501Z,72.09
2022-11-28T15:30:19.343Z,72.53
2022-11-28T15:35:22.965Z,72.62
2022-11-28T15:40:29.736Z,73.47
2022-11-28T15:45:36.361Z,75.45
2022-11-28T15:50:51.219Z,74.90
2022-11-28T15:56:11.881Z,75.53
2022-11-28T16:01:20.039Z,74.62
2022-11-28T16:06:25.886Z,73.23
2022-11-28T16:11:31.084Z,72.52
2022-11-28T16:16:39.200Z,71.95
2022-11-28T16:21:51.075Z,70.42
2022-11-28T16:26:57.202Z,69.00
2022-11-28T16:32:21.907Z,67.68
2022-11-28T16:37:27.721Z,66.05
2022-11-28T16:42:32.094Z,65.41
2022-11-28T16:47:37.380Z,64.11
2022-11-28T16:52:46.893Z,62.86
2022-11-28T16:57:57.703Z,61.76
2022-11-28T17:03:02.973Z,61.92
2022-11-28T17:08:08.175Z,62.37
2022-11-28T17:13:13.587Z,61.74
2022-11-28T17:18:18.764Z,61.41
2022-11-28T17:23:22.392Z,61.44
2022-11-28T17:28:29.125Z,61.13
2022-11-28T17:33:34.561Z,60.04
2022-11-28T17:38:38.139Z,60.13
2022-11-28T17:43:42.216Z,58.86
2022-11-28T17:48:47.471Z,57.59
2022-11-28T17:53:51.027Z,57.63
2022-11-28T17:58:54.715Z,57.50
2022-11-28T18:04:00.684Z,55.73
2022-11-28T18:09:10.118Z,55.60
2022-11-28T18:14:18.120Z,55.76
2022-11-28T18:19:24.859Z,55.51
2022-11-28T18:24:28.454Z,54.78
2022-11-28T18:29:32.101Z,54.34
2022-11-28T18:34:38.408Z,53.52
2022-11-28T18:39:42.346Z,54.01
2022-11-28T18:44:46.121Z,54.31
2022-11-28T18:49:52.324Z,52.56
2022-11-28T18:54:56.064Z,52.87
2022-11-28T19:00:00.258Z,52.43
2022-11-28T19:05:06.469Z,52.10
2022-11-28T19:10:10.897Z,51.98
2022-11-28T19:15:14.501Z,51.71
2022-11-28T19:20:19.862Z,51.69
2022-11-28T19:25:23.387Z,52.02
2022-11-28T19:30:26.951Z,52.76
2022-11-28T19:35:33.557Z,52.14
2022-11-28T19:40:39.656Z,51.71
2022-11-28T19:45:43.285Z,50.81
2022-11-28T19:50:52.159Z,50.78
2022-11-28T19:55:55.774Z,50.45
2022-11-28T20:01:04.999Z,49.69
2022-11-28T20:06:11.704Z,48.91
2022-11-28T20:11:17.482Z,49.55
2022-11-28T20:16:20.378Z,48.86
2022-11-28T20:21:26.997Z,48.88
2022-11-28T20:26:31.114Z,47.22
2022-11-28T20:31:36.881Z,45.67
2022-11-28T20:36:42.350Z,43.57
2022-11-28T20:41:45.908Z,42.03
2022-11-28T20:46:49.507Z,42.68
2022-11-28T20:51:54.717Z,39.72
2022-11-28T20:57:20.257Z,39.86
2022-11-28T21:02:22.780Z,39.80
2022-11-28T21:07:28.098Z,41.15
2022-11-28T21:12:31.806Z,41.61
2022-11-28T21:17:35.397Z,42.05
2022-11-28T21:22:40.610Z,42.37
2022-11-28T21:27:44.193Z,43.12
2022-11-28T21:32:47.769Z,43.55
2022-11-28T21:37:53.044Z,44.34
2022-11-28T21:42:57.000Z,45.30
2022-11-28T21:48:00.771Z,45.83
2022-11-28T21:53:06.046Z,45.80
2022-11-28T21:58:09.748Z,47.22
2022-11-28T22:03:14.481Z,47.73
2022-11-28T22:08:20.008Z,48.40
2022-11-28T22:13:23.735Z,48.26
2022-11-28T22:18:29.176Z,47.91
2022-11-28T22:23:37.383Z,48.02
2022-11-28T22:28:47.867Z,48.17
2022-11-28T22:33:56.901Z,48.23
2022-11-28T22:39:02.276Z,50.04
2022-11-28T22:44:06.350Z,48.46
2022-11-28T22:49:10.902Z,48.15
2022-11-28T22:54:16.187Z,48.39
2022-11-28T22:59:20.035Z,48.87
2022-11-28T23:04:23.572Z,48.29
2022-11-28T23:09:28.858Z,47.75
2022-11-28T23:14:32.565Z,48.53
2022-11-28T23:19:36.430Z,47.70
2022-11-28T23:24:41.968Z,48.93
2022-11-28T23:29:45.145Z,47.99
2022-11-28T23:34:48.791Z,47.20
2022-11-28T23:39:54.007Z,47.47
2022-11-28T23:44:57.617Z,48.06
2022-11-28T23:50:01.255Z,48.86
2022-11-28T23:55:07.570Z,48.79
